createdAt,value
2018-11-05T00:01:22.673Z,100751.00
2018-11-05T00:03:51.976Z,100754.00
2018-11-05T00:06:21.210Z,100756.00
2018-11-05T00:08:50.378Z,100761.00
2018-11-05T00:11:19.581Z,100764.00
2018-11-05T00:13:48.832Z,100759.00
2018-11-05T00:16:17.998Z,100754.00
2018-11-05T00:21:51.193Z,100746.00
2018-11-05T00:24:20.401Z,100741.00
2018-11-05T00:26:49.615Z,100737.00
2018-11-05T00:29:18.775Z,100743.00
2018-11-05T00:31:47.960Z,100751.00
2018-11-05T00:34:17.152Z,100745.00
2018-11-05T00:36:46.308Z,100747.00
2018-11-05T00:39:15.569Z,100735.00
2018-11-05T00:41:44.762Z,100732.00
2018-11-05T00:44:13.963Z,100734.00
2018-11-05T00:46:43.149Z,100735.00
2018-11-05T00:49:12.363Z,100729.00
2018-11-05T00:51:42.117Z,100716.00
2018-11-05T00:54:11.319Z,100711.00
2018-11-05T00:56:40.522Z,100715.00
2018-11-05T00:59:09.756Z,100719.00
2018-11-05T01:01:38.982Z,100716.00
2018-11-05T01:04:08.226Z,100723.00
2018-11-05T01:06:37.437Z,100713.00
2018-11-05T01:09:07.827Z,100706.00
2018-11-05T01:11:37.438Z,100710.00
2018-11-05T01:17:07.509Z,100704.00
2018-11-05T01:19:36.695Z,100708.00
2018-11-05T01:22:06.008Z,100706.00
2018-11-05T01:24:35.193Z,100699.00
2018-11-05T01:27:04.410Z,100701.00
2018-11-05T01:29:33.596Z,100689.00
2018-11-05T01:32:25.822Z,100697.00
2018-11-05T01:34:55.012Z,100701.00
2018-11-05T01:37:24.193Z,100699.00
2018-11-05T01:39:53.382Z,100688.00
2018-11-05T01:42:29.645Z,100701.00
2018-11-05T01:44:58.855Z,100689.00
2018-11-05T01:47:28.078Z,100691.00
2018-11-05T01:49:57.283Z,100690.00
2018-11-05T01:52:26.491Z,100682.00
2018-11-05T01:54:55.687Z,100681.00
2018-11-05T01:57:24.909Z,100683.00
2018-11-05T01:59:54.071Z,100682.00
2018-11-05T02:02:29.106Z,100675.00
2018-11-05T02:04:58.286Z,100678.00
2018-11-05T02:07:27.491Z,100670.00
2018-11-05T02:10:25.921Z,100670.00
2018-11-05T02:12:55.075Z,100666.00
2018-11-05T02:15:24.262Z,100665.00
2018-11-05T02:17:53.460Z,100668.00
2018-11-05T02:20:22.629Z,100669.00
2018-11-05T02:22:51.893Z,100675.00
2018-11-05T02:25:21.070Z,100670.00
2018-11-05T02:27:50.371Z,100667.00
2018-11-05T02:30:20.002Z,100673.00
2018-11-05T02:32:49.174Z,100666.00
2018-11-05T02:35:18.970Z,100662.00
2018-11-05T02:40:48.623Z,100662.00
2018-11-05T02:43:17.798Z,100663.00
2018-11-05T02:45:47.017Z,100654.00
2018-11-05T02:48:16.216Z,100659.00
2018-11-05T02:50:45.386Z,100656.00
2018-11-05T02:53:14.604Z,100653.00
2018-11-05T02:55:43.783Z,100647.00
2018-11-05T02:58:12.960Z,100645.00
2018-11-05T03:03:42.622Z,100639.00
2018-11-05T03:06:25.998Z,100645.00
2018-11-05T03:08:55.207Z,100638.00
2018-11-05T03:11:24.446Z,100641.00
2018-11-05T03:13:53.625Z,100638.00
2018-11-05T03:16:22.831Z,100650.00
2018-11-05T03:18:52.005Z,100649.00
2018-11-05T03:21:21.205Z,100647.00
2018-11-05T03:23:50.411Z,100641.00
2018-11-05T03:26:19.610Z,100647.00
2018-11-05T03:28:48.818Z,100645.00
2018-11-05T03:31:18.026Z,100643.00
2018-11-05T03:33:47.191Z,100640.00
2018-11-05T03:36:16.383Z,100645.00
2018-11-05T03:38:45.569Z,100638.00
2018-11-05T03:41:14.737Z,100634.00
2018-11-05T03:43:43.961Z,100637.00
2018-11-05T03:46:13.133Z,100629.00
2018-11-05T03:48:42.315Z,100631.00
2018-11-05T03:51:11.526Z,100642.00
2018-11-05T03:53:40.744Z,100643.00
2018-11-05T03:56:10.027Z,100643.00
2018-11-05T03:58:39.172Z,100648.00
2018-11-05T04:01:27.294Z,100639.00
2018-11-05T04:03:56.507Z,100639.00
2018-11-05T04:06:25.736Z,100636.00
2018-11-05T04:08:54.901Z,100640.00
2018-11-05T04:11:24.101Z,100643.00
2018-11-05T04:13:53.522Z,100638.00
2018-11-05T04:16:22.700Z,100629.00
2018-11-05T04:18:51.852Z,100625.00
2018-11-05T04:21:21.057Z,100626.00
2018-11-05T04:23:50.249Z,100624.00
2018-11-05T04:26:19.425Z,100609.00
2018-11-05T04:31:48.826Z,100623.00
2018-11-05T04:34:18.019Z,100612.00
2018-11-05T04:36:47.210Z,100607.00
2018-11-05T04:39:16.870Z,100607.00
2018-11-05T04:41:46.070Z,100597.00
2018-11-05T04:44:15.258Z,100603.00
2018-11-05T04:46:44.466Z,100605.00
2018-11-05T04:49:13.694Z,100606.00
2018-11-05T04:51:42.859Z,100602.00
2018-11-05T04:54:12.067Z,100601.00
2018-11-05T04:56:41.242Z,100605.00
2018-11-05T04:59:10.477Z,100613.00
2018-11-05T05:01:39.622Z,100606.00
2018-11-05T05:04:08.778Z,100612.00
2018-11-05T05:06:38.027Z,100614.00
2018-11-05T05:09:11.393Z,100612.00
2018-11-05T05:11:40.771Z,100604.00
2018-11-05T05:14:10.944Z,100605.00
2018-11-05T05:16:40.266Z,100608.00
2018-11-05T05:19:09.422Z,100609.00
2018-11-05T05:21:38.578Z,100607.00
2018-11-05T05:24:26.703Z,100613.00
2018-11-05T05:26:55.951Z,100607.00
2018-11-05T05:29:25.192Z,100607.00
2018-11-05T05:34:47.871Z,100620.00
2018-11-05T05:37:17.078Z,100614.00
2018-11-05T05:39:46.306Z,100622.00
2018-11-05T05:42:16.271Z,100616.00
2018-11-05T05:44:45.469Z,100625.00
2018-11-05T05:47:14.749Z,100619.00
2018-11-05T05:49:44.114Z,100628.00
2018-11-05T05:52:13.345Z,100625.00
2018-11-05T05:54:42.521Z,100616.00
2018-11-05T05:57:11.802Z,100619.00
2018-11-05T05:59:40.975Z,100618.00
2018-11-05T06:02:26.748Z,100616.00
2018-11-05T06:04:55.914Z,100623.00
2018-11-05T06:07:25.138Z,100619.00
2018-11-05T06:09:54.313Z,100627.00
2018-11-05T06:12:23.538Z,100626.00
2018-11-05T06:14:52.718Z,100627.00
2018-11-05T06:17:21.893Z,100628.00
2018-11-05T06:19:51.112Z,100637.00
2018-11-05T06:22:20.286Z,100643.00
2018-11-05T06:24:49.531Z,100645.00
2018-11-05T06:27:18.729Z,100637.00
2018-11-05T06:29:47.980Z,100652.00
2018-11-05T06:32:27.241Z,100641.00
2018-11-05T06:34:56.486Z,100641.00
2018-11-05T06:37:25.674Z,100646.00
2018-11-05T06:39:54.865Z,100651.00
2018-11-05T06:42:24.079Z,100649.00
2018-11-05T06:44:53.303Z,100653.00
2018-11-05T06:47:22.597Z,100649.00
2018-11-05T06:49:51.797Z,100652.00
2018-11-05T06:52:21.056Z,100648.00
2018-11-05T06:54:50.214Z,100653.00
2018-11-05T06:57:19.609Z,100647.00
2018-11-05T06:59:48.857Z,100646.00
2018-11-05T07:02:28.060Z,100651.00
2018-11-05T07:04:57.333Z,100662.00
2018-11-05T07:07:26.480Z,100655.00
2018-11-05T07:09:55.718Z,100665.00
2018-11-05T07:12:24.853Z,100665.00
2018-11-05T07:17:54.432Z,100672.00
2018-11-05T07:20:23.628Z,100671.00
2018-11-05T07:25:53.017Z,100658.00
2018-11-05T07:28:28.068Z,100662.00
2018-11-05T07:31:25.971Z,100657.00
2018-11-05T07:33:55.266Z,100661.00
2018-11-05T07:36:28.066Z,100660.00
2018-11-05T07:39:24.543Z,100661.00
2018-11-05T07:41:53.825Z,100666.00
2018-11-05T07:44:28.849Z,100651.00
2018-11-05T07:47:24.586Z,100660.00
2018-11-05T07:49:53.834Z,100660.00
2018-11-05T07:52:29.138Z,100663.00
2018-11-05T07:55:25.072Z,100660.00
2018-11-05T07:57:54.318Z,100657.00
2018-11-05T08:00:29.137Z,100660.00
2018-11-05T08:03:25.146Z,100658.00
2018-11-05T08:05:54.845Z,100659.00
2018-11-05T08:08:24.159Z,100663.00
2018-11-05T08:10:53.322Z,100659.00
2018-11-05T08:13:22.541Z,100660.00
2018-11-05T08:15:51.744Z,100653.00
2018-11-05T08:18:20.985Z,100650.00
2018-11-05T08:20:50.828Z,100663.00
2018-11-05T08:23:27.065Z,100667.00
2018-11-05T08:25:56.320Z,100655.00
2018-11-05T08:28:25.486Z,100662.00
2018-11-05T08:30:54.668Z,100656.00
2018-11-05T08:33:23.936Z,100654.00
2018-11-05T08:35:53.110Z,100656.00
2018-11-05T08:38:28.128Z,100654.00
2018-11-05T08:40:57.318Z,100649.00
2018-11-05T08:43:26.486Z,100662.00
2018-11-05T08:45:55.750Z,100654.00
2018-11-05T08:48:24.944Z,100650.00
2018-11-05T08:50:54.362Z,100655.00
2018-11-05T08:53:23.405Z,100656.00
2018-11-05T08:55:52.699Z,100655.00
2018-11-05T08:58:22.090Z,100656.00
2018-11-05T09:00:55.632Z,100644.00
2018-11-05T09:03:24.828Z,100647.00
2018-11-05T09:05:54.677Z,100650.00
2018-11-05T09:08:23.834Z,100651.00
2018-11-05T09:10:53.474Z,100647.00
2018-11-05T09:13:22.394Z,100646.00
2018-11-05T09:15:51.591Z,100646.00
2018-11-05T09:18:20.839Z,100639.00
2018-11-05T09:23:50.717Z,100641.00
2018-11-05T09:26:19.894Z,100627.00
2018-11-05T09:28:49.088Z,100638.00
2018-11-05T09:31:18.495Z,100631.00
2018-11-05T09:33:48.703Z,100623.00
2018-11-05T09:36:17.878Z,100634.00
2018-11-05T09:38:47.133Z,100637.00
2018-11-05T09:41:16.408Z,100637.00
2018-11-05T09:43:46.116Z,100638.00
2018-11-05T09:46:15.369Z,100638.00
2018-11-05T09:51:46.086Z,100625.00
2018-11-05T09:54:15.445Z,100614.00
2018-11-05T09:56:44.684Z,100627.00
2018-11-05T09:59:13.954Z,100623.00
2018-11-05T10:01:43.116Z,100614.00
2018-11-05T10:04:12.426Z,100612.00
2018-11-05T10:06:41.662Z,100612.00
2018-11-05T10:09:12.396Z,100613.00
2018-11-05T10:11:41.611Z,100616.00
2018-11-05T10:14:10.967Z,100612.00
2018-11-05T10:16:40.159Z,100610.00
2018-11-05T10:19:09.362Z,100613.00
2018-11-05T10:21:38.691Z,100613.00
2018-11-05T10:24:07.903Z,100603.00
2018-11-05T10:26:37.157Z,100604.00
2018-11-05T10:29:07.199Z,100607.00
2018-11-05T10:31:36.403Z,100590.00
2018-11-05T10:34:05.819Z,100596.00
2018-11-05T10:36:35.056Z,100589.00
2018-11-05T10:39:05.166Z,100589.00
2018-11-05T10:41:35.381Z,100579.00
2018-11-05T10:44:25.191Z,100592.00
2018-11-05T10:46:54.519Z,100582.00
2018-11-05T10:49:23.711Z,100588.00
2018-11-05T10:51:52.919Z,100589.00
2018-11-05T10:54:22.129Z,100581.00
2018-11-05T10:56:51.425Z,100578.00
2018-11-05T10:59:20.626Z,100583.00
2018-11-05T11:04:32.350Z,100582.00
2018-11-05T11:07:02.208Z,100579.00
2018-11-05T11:09:31.687Z,100577.00
2018-11-05T11:12:26.197Z,100573.00
2018-11-05T11:14:55.654Z,100573.00
2018-11-05T11:17:25.001Z,100565.00
2018-11-05T11:22:54.602Z,100557.00
2018-11-05T11:25:23.812Z,100561.00
2018-11-05T11:27:53.178Z,100549.00
2018-11-05T11:30:22.459Z,100553.00
2018-11-05T11:32:52.647Z,100551.00
2018-11-05T11:35:22.118Z,100548.00
2018-11-05T11:37:51.297Z,100545.00
2018-11-05T11:40:22.116Z,100554.00
2018-11-05T11:42:52.101Z,100538.00
2018-11-05T11:45:22.225Z,100535.00
2018-11-05T11:47:51.479Z,100537.00
2018-11-05T11:50:20.924Z,100526.00
2018-11-05T11:52:50.613Z,100525.00
2018-11-05T11:55:28.003Z,100511.00
2018-11-05T11:57:57.337Z,100512.00
2018-11-05T12:00:26.849Z,100519.00
2018-11-05T12:03:24.996Z,100510.00
2018-11-05T12:05:55.666Z,100508.00
2018-11-05T12:08:24.961Z,100508.00
2018-11-05T12:10:54.745Z,100503.00
2018-11-05T12:13:24.711Z,100501.00
2018-11-05T12:15:54.037Z,100499.00
2018-11-05T12:18:24.106Z,100487.00
2018-11-05T12:20:54.398Z,100495.00
2018-11-05T12:23:26.165Z,100488.00
2018-11-05T12:25:55.500Z,100484.00
2018-11-05T12:28:24.673Z,100480.00
2018-11-05T12:30:54.411Z,100481.00
2018-11-05T12:33:23.771Z,100476.00
2018-11-05T12:35:53.006Z,100471.00
2018-11-05T12:38:28.324Z,100465.00
2018-11-05T12:40:57.871Z,100467.00
2018-11-05T12:43:27.749Z,100469.00
2018-11-05T12:45:56.974Z,100466.00
2018-11-05T12:48:26.145Z,100471.00
2018-11-05T12:50:55.361Z,100464.00
2018-11-05T12:53:24.556Z,100463.00
2018-11-05T12:55:53.907Z,100468.00
2018-11-05T12:58:23.314Z,100465.00
2018-11-05T13:00:52.656Z,100460.00
2018-11-05T13:03:21.982Z,100460.00
2018-11-05T13:05:51.184Z,100465.00
2018-11-05T13:08:20.417Z,100466.00
2018-11-05T13:10:49.592Z,100463.00
2018-11-05T13:13:18.776Z,100467.00
2018-11-05T13:15:48.001Z,100463.00
2018-11-05T13:18:17.172Z,100468.00
2018-11-05T13:23:47.541Z,100456.00
2018-11-05T13:26:17.156Z,100461.00
2018-11-05T14:04:55.224Z,100451.00
2018-11-05T14:07:24.406Z,100448.00
2018-11-05T14:09:53.578Z,100451.00
2018-11-05T14:12:22.797Z,100443.00
2018-11-05T14:14:51.944Z,100441.00
2018-11-05T14:17:21.115Z,100436.00
2018-11-05T14:19:50.338Z,100444.00
2018-11-05T14:22:19.513Z,100442.00
2018-11-05T14:24:48.688Z,100434.00
2018-11-05T14:27:17.957Z,100445.00
2018-11-05T14:33:03.829Z,100449.00
2018-11-05T14:35:33.010Z,100452.00
2018-11-05T14:38:02.267Z,100450.00
2018-11-05T14:40:31.464Z,100461.00
2018-11-05T14:43:00.698Z,100453.00
2018-11-05T14:45:29.926Z,100456.00
2018-11-05T14:47:59.175Z,100455.00
2018-11-05T14:50:28.435Z,100455.00
2018-11-05T14:52:58.174Z,100448.00
2018-11-05T14:55:27.417Z,100449.00
2018-11-05T14:58:25.918Z,100458.00
2018-11-05T15:00:55.114Z,100455.00
2018-11-05T15:03:24.391Z,100449.00
2018-11-05T15:05:53.600Z,100448.00
2018-11-05T15:08:22.833Z,100446.00
2018-11-05T15:10:51.999Z,100436.00
2018-11-05T15:13:21.183Z,100443.00
2018-11-05T15:15:50.405Z,100442.00
2018-11-05T15:18:19.660Z,100433.00
2018-11-05T15:20:48.911Z,100430.00
2018-11-05T15:23:18.090Z,100434.00
2018-11-05T15:28:48.062Z,100438.00
2018-11-05T15:32:46.536Z,100422.00
2018-11-05T15:35:15.903Z,100435.00
2018-11-05T15:37:45.457Z,100432.00
2018-11-05T15:40:15.894Z,100432.00
2018-11-05T15:42:45.232Z,100430.00
2018-11-05T15:45:15.712Z,100439.00
2018-11-05T15:47:44.946Z,100440.00
2018-11-05T15:50:15.639Z,100430.00
2018-11-05T15:53:32.411Z,100437.00
2018-11-05T15:56:01.358Z,100423.00
2018-11-05T15:58:30.567Z,100421.00
2018-11-05T16:00:59.736Z,100430.00
2018-11-05T16:03:29.059Z,100428.00
2018-11-05T16:05:58.293Z,100430.00
2018-11-05T16:08:27.534Z,100431.00
2018-11-05T16:10:56.742Z,100440.00
2018-11-05T16:13:26.060Z,100441.00
2018-11-05T16:16:24.648Z,100439.00
2018-11-05T16:18:53.802Z,100445.00
2018-11-05T16:21:29.476Z,100442.00
2018-11-05T16:23:58.694Z,100442.00
2018-11-05T16:26:27.861Z,100438.00
2018-11-05T16:28:57.059Z,100441.00
2018-11-05T16:31:26.369Z,100448.00
2018-11-05T16:33:55.562Z,100447.00
2018-11-05T16:36:28.007Z,100444.00
2018-11-05T16:38:57.193Z,100441.00
2018-11-05T16:41:26.430Z,100435.00
2018-11-05T16:43:55.694Z,100436.00
2018-11-05T16:46:28.323Z,100429.00
2018-11-05T16:49:24.667Z,100434.00
2018-11-05T16:54:54.422Z,100432.00
2018-11-05T16:57:23.743Z,100424.00
2018-11-05T16:59:53.600Z,100423.00
2018-11-05T17:02:29.840Z,100427.00
2018-11-05T17:04:59.149Z,100411.00
2018-11-05T17:07:28.905Z,100421.00
2018-11-05T17:09:58.345Z,100423.00
2018-11-05T17:12:27.565Z,100427.00
2018-11-05T17:15:26.129Z,100416.00
2018-11-05T17:17:55.332Z,100430.00
2018-11-05T17:20:24.548Z,100424.00
2018-11-05T17:22:53.792Z,100428.00
2018-11-05T17:25:29.164Z,100423.00
2018-11-05T17:28:25.308Z,100421.00
2018-11-05T17:34:25.098Z,100429.00
2018-11-05T17:36:54.297Z,100430.00
2018-11-05T17:39:29.646Z,100426.00
2018-11-05T17:41:58.846Z,100441.00
2018-11-05T17:44:28.046Z,100432.00
2018-11-05T17:46:57.242Z,100431.00
2018-11-05T17:49:27.665Z,100436.00
2018-11-05T17:51:57.099Z,100438.00
2018-11-05T17:54:27.839Z,100437.00
2018-11-05T17:56:57.231Z,100442.00
2018-11-05T17:59:27.471Z,100440.00
2018-11-05T18:05:25.211Z,100439.00
2018-11-05T18:07:54.524Z,100448.00
2018-11-05T18:10:29.429Z,100446.00
2018-11-05T18:13:25.189Z,100447.00
2018-11-05T18:15:54.470Z,100447.00
2018-11-05T18:18:23.782Z,100449.00
2018-11-05T18:20:53.157Z,100444.00
2018-11-05T18:23:22.489Z,100436.00
2018-11-05T18:44:25.129Z,100461.00
2018-11-05T18:56:25.645Z,100439.00
2018-11-05T19:02:24.869Z,100444.00
2018-11-05T19:11:25.372Z,100453.00
2018-11-05T19:17:24.919Z,100444.00
2018-11-05T19:29:24.927Z,100453.00
2018-11-05T19:32:42.714Z,100455.00
2018-11-05T19:35:12.467Z,100454.00
2018-11-05T19:40:42.062Z,100446.00
2018-11-05T19:43:27.831Z,100436.00
2018-11-05T19:46:26.301Z,100429.00
2018-11-05T19:51:55.623Z,100441.00
2018-11-05T19:54:28.668Z,100442.00
2018-11-05T19:57:24.919Z,100445.00
2018-11-05T20:09:25.186Z,100444.00
2018-11-05T20:14:55.122Z,100452.00
2018-11-05T20:17:24.366Z,100445.00
2018-11-05T20:19:53.667Z,100451.00
2018-11-05T20:22:22.948Z,100442.00
2018-11-05T20:24:52.215Z,100436.00
2018-11-05T20:27:21.520Z,100444.00
2018-11-05T20:29:51.294Z,100450.00
2018-11-05T20:32:28.051Z,100448.00
2018-11-05T20:34:56.833Z,100452.00
2018-11-05T20:37:26.246Z,100444.00
2018-11-05T20:39:55.553Z,100441.00
2018-11-05T20:42:24.695Z,100440.00
2018-11-05T20:44:53.875Z,100432.00
2018-11-05T20:47:28.804Z,100444.00
2018-11-05T20:49:57.991Z,100442.00
2018-11-05T20:52:27.228Z,100447.00
2018-11-05T20:54:56.452Z,100443.00
2018-11-05T20:57:25.716Z,100435.00
2018-11-05T20:59:55.390Z,100429.00
2018-11-05T21:02:28.069Z,100429.00
2018-11-05T21:04:57.253Z,100433.00
2018-11-05T21:07:26.794Z,100429.00
2018-11-05T21:09:56.022Z,100432.00
2018-11-05T21:12:25.199Z,100432.00
2018-11-05T21:14:54.369Z,100432.00
2018-11-05T21:17:24.373Z,100439.00
2018-11-05T21:19:53.672Z,100433.00
2018-11-05T21:22:23.832Z,100428.00
2018-11-05T21:24:52.949Z,100413.00
2018-11-05T21:27:22.152Z,100418.00
2018-11-05T21:29:51.410Z,100410.00
2018-11-05T21:32:27.547Z,100413.00
2018-11-05T21:34:56.863Z,100407.00
2018-11-05T21:37:26.018Z,100412.00
2018-11-05T21:39:55.201Z,100414.00
2018-11-05T21:42:24.406Z,100414.00
2018-11-05T21:44:53.599Z,100417.00
2018-11-05T21:47:22.920Z,100417.00
2018-11-05T21:49:52.160Z,100419.00
2018-11-05T21:52:21.390Z,100419.00
2018-11-05T21:54:50.568Z,100424.00
2018-11-05T21:57:27.221Z,100415.00
2018-11-05T21:59:56.401Z,100422.00
2018-11-05T22:02:29.340Z,100420.00
2018-11-05T22:04:58.516Z,100414.00
2018-11-05T22:07:27.701Z,100426.00
2018-11-05T22:09:56.911Z,100424.00
2018-11-05T22:12:26.096Z,100430.00
2018-11-05T22:14:55.265Z,100436.00
2018-11-05T22:17:24.502Z,100436.00
2018-11-05T22:19:53.663Z,100428.00
2018-11-05T22:22:22.844Z,100431.00
2018-11-05T22:27:52.225Z,100434.00
2018-11-05T22:30:27.371Z,100425.00
2018-11-05T22:33:25.374Z,100436.00
2018-11-05T22:35:54.612Z,100434.00
2018-11-05T22:38:23.798Z,100439.00
2018-11-05T22:40:53.007Z,100438.00
2018-11-05T22:43:22.162Z,100433.00
2018-11-05T22:45:51.344Z,100429.00
2018-11-05T22:48:20.586Z,100431.00
2018-11-05T22:50:49.786Z,100428.00
2018-11-05T22:53:28.650Z,100430.00
2018-11-05T22:55:57.818Z,100429.00
2018-11-05T22:58:26.977Z,100432.00
2018-11-05T23:01:01.572Z,100426.00
2018-11-05T23:03:31.286Z,100426.00
2018-11-05T23:06:00.786Z,100430.00
2018-11-05T23:08:30.023Z,100430.00
2018-11-05T23:10:59.592Z,100427.00
2018-11-05T23:13:28.769Z,100425.00
2018-11-05T23:15:57.978Z,100422.00
2018-11-05T23:18:27.141Z,100422.00
2018-11-05T23:20:56.308Z,100423.00
2018-11-05T23:23:25.524Z,100423.00
2018-11-05T23:25:54.696Z,100419.00
2018-11-05T23:28:23.849Z,100419.00
2018-11-05T23:30:53.072Z,100429.00
2018-11-05T23:33:22.261Z,100438.00
2018-11-05T23:35:51.469Z,100437.00
2018-11-05T23:38:21.214Z,100425.00
2018-11-05T23:40:50.506Z,100431.00
2018-11-05T23:43:27.482Z,100424.00
2018-11-05T23:45:56.653Z,100435.00
2018-11-05T23:48:25.816Z,100441.00
2018-11-05T23:50:55.095Z,100441.00
2018-11-05T23:53:24.254Z,100439.00
2018-11-05T23:55:53.419Z,100442.00
2018-11-05T23:58:22.661Z,100447.00
